createdAt,value
2022-10-11T00:00:52.168Z,67.38
2022-10-11T00:03:29.364Z,66.80
2022-10-11T00:06:07.844Z,65.99
2022-10-11T00:08:41.587Z,65.22
2022-10-11T00:11:13.925Z,65.95
2022-10-11T00:13:41.997Z,67.13
2022-10-11T00:16:11.299Z,65.88
2022-10-11T00:18:40.971Z,65.02
2022-10-11T00:21:11.999Z,65.25
2022-10-11T00:23:40.144Z,64.73
2022-10-11T00:26:10.205Z,63.98
2022-10-11T00:28:38.684Z,63.93
2022-10-11T00:31:09.291Z,63.85
2022-10-11T00:33:38.048Z,63.73
2022-10-11T00:36:09.123Z,63.50
2022-10-11T00:38:37.402Z,63.68
2022-10-11T00:41:05.525Z,63.51
2022-10-11T00:43:34.719Z,63.05
2022-10-11T00:46:07.439Z,63.60
2022-10-11T00:48:41.549Z,63.39
2022-10-11T00:51:17.624Z,63.01
2022-10-11T00:53:48.434Z,62.98
2022-10-11T00:56:21.761Z,63.83
2022-10-11T00:58:49.926Z,64.05
2022-10-11T01:01:18.037Z,64.21
2022-10-11T01:03:46.244Z,64.27
2022-10-11T01:06:15.581Z,63.93
2022-10-11T01:08:44.376Z,63.00
2022-10-11T01:11:15.749Z,63.44
2022-10-11T01:13:54.968Z,63.96
2022-10-11T01:16:30.477Z,64.51
2022-10-11T01:19:09.916Z,65.06
2022-10-11T01:21:47.287Z,64.43
2022-10-11T01:24:40.859Z,63.58
2022-10-11T01:27:35.610Z,64.05
2022-10-11T01:30:15.843Z,63.91
2022-10-11T01:32:50.236Z,63.20
2022-10-11T01:35:25.904Z,63.19
2022-10-11T01:37:59.703Z,62.72
2022-10-11T01:40:33.593Z,63.52
2022-10-11T01:43:03.520Z,63.18
2022-10-11T01:45:35.422Z,63.48
2022-10-11T01:48:06.548Z,63.33
2022-10-11T01:50:39.608Z,63.35
2022-10-11T01:53:26.427Z,63.30
2022-10-11T01:55:58.693Z,63.84
2022-10-11T01:58:37.880Z,63.67
2022-10-11T02:01:18.389Z,63.95
2022-10-11T02:03:52.413Z,64.40
2022-10-11T02:06:26.661Z,66.08
2022-10-11T02:09:04.370Z,65.53
2022-10-11T02:11:37.503Z,66.29
2022-10-11T02:14:11.396Z,66.00
2022-10-11T02:16:45.530Z,67.13
2022-10-11T02:19:16.447Z,68.56
2022-10-11T02:21:48.383Z,65.83
2022-10-11T02:24:20.449Z,66.52
2022-10-11T02:26:54.559Z,68.38
2022-10-11T02:29:26.319Z,68.10
2022-10-11T02:31:59.808Z,66.78
2022-10-11T02:34:32.576Z,67.00
2022-10-11T02:37:05.437Z,68.15
2022-10-11T02:39:40.707Z,68.72
2022-10-11T02:42:15.033Z,66.99
2022-10-11T02:44:47.920Z,68.02
2022-10-11T02:47:18.059Z,68.96
2022-10-11T02:49:46.948Z,68.62
2022-10-11T02:52:15.621Z,71.18
2022-10-11T02:54:43.647Z,69.40
2022-10-11T02:57:11.563Z,68.62
2022-10-11T02:59:39.517Z,69.94
2022-10-11T03:02:07.636Z,68.77
2022-10-11T03:04:37.001Z,71.10
2022-10-11T03:07:04.949Z,68.78
2022-10-11T03:09:32.930Z,69.70
2022-10-11T03:12:00.925Z,69.48
2022-10-11T03:14:29.353Z,69.58
2022-10-11T03:17:07.965Z,69.56
2022-10-11T03:19:47.587Z,69.55
2022-10-11T03:22:15.814Z,69.66
2022-10-11T03:24:43.699Z,68.28
2022-10-11T03:27:11.630Z,70.26
2022-10-11T03:29:39.608Z,68.54
2022-10-11T03:32:07.608Z,68.86
2022-10-11T03:34:35.581Z,70.69
2022-10-11T03:37:04.918Z,71.50
2022-10-11T03:39:32.894Z,70.49
2022-10-11T03:42:00.977Z,72.50
2022-10-11T03:44:28.936Z,70.11
2022-10-11T03:46:57.154Z,70.81
2022-10-11T03:49:25.219Z,70.06
2022-10-11T03:51:53.178Z,71.09
2022-10-11T03:54:22.701Z,71.61
2022-10-11T03:56:50.718Z,71.51
2022-10-11T03:59:18.661Z,70.54
2022-10-11T04:01:46.654Z,70.95
2022-10-11T04:04:14.721Z,70.76
2022-10-11T04:06:42.816Z,70.30
2022-10-11T04:09:10.747Z,70.83
2022-10-11T04:11:40.519Z,70.76
2022-10-11T04:14:08.485Z,71.10
2022-10-11T04:16:38.685Z,73.17
2022-10-11T04:19:06.948Z,71.76
2022-10-11T04:21:34.920Z,71.42
2022-10-11T04:24:02.870Z,71.90
2022-10-11T04:26:30.821Z,71.53
2022-10-11T04:29:00.233Z,71.86
2022-10-11T04:31:28.239Z,71.91
2022-10-11T04:33:57.094Z,72.53
2022-10-11T04:36:25.393Z,71.83
2022-10-11T04:38:56.138Z,72.78
2022-10-11T04:41:24.061Z,71.75
2022-10-11T04:43:52.105Z,72.43
2022-10-11T04:46:21.590Z,73.08
2022-10-11T04:48:49.523Z,71.90
2022-10-11T04:51:17.480Z,72.04
2022-10-11T04:53:45.469Z,72.27
2022-10-11T04:56:15.080Z,72.98
2022-10-11T04:58:43.036Z,72.95
2022-10-11T05:01:11.857Z,73.77
2022-10-11T05:03:41.248Z,73.70
2022-10-11T05:06:09.889Z,73.49
2022-10-11T05:08:39.320Z,73.06
2022-10-11T05:11:09.516Z,73.17
2022-10-11T05:13:38.024Z,72.92
2022-10-11T05:16:10.603Z,73.05
2022-10-11T05:18:39.379Z,74.57
2022-10-11T05:21:15.931Z,74.03
2022-10-11T05:23:44.211Z,73.69
2022-10-11T05:26:12.347Z,73.76
2022-10-11T05:28:40.623Z,74.32
2022-10-11T05:31:08.654Z,73.73
2022-10-11T05:33:36.976Z,74.40
2022-10-11T05:36:06.576Z,74.26
2022-10-11T05:38:36.248Z,74.56
2022-10-11T05:41:05.320Z,74.64
2022-10-11T05:43:33.555Z,73.99
2022-10-11T05:46:01.981Z,74.20
2022-10-11T05:48:30.090Z,75.01
2022-10-11T05:51:02.135Z,75.02
2022-10-11T05:53:30.944Z,74.41
2022-10-11T05:56:00.271Z,73.73
2022-10-11T05:58:28.932Z,73.75
2022-10-11T06:00:57.920Z,74.38
2022-10-11T06:03:25.682Z,74.61
2022-10-11T06:05:57.039Z,75.33
2022-10-11T06:08:25.412Z,73.65
2022-10-11T06:10:55.760Z,74.99
2022-10-11T06:13:25.070Z,74.45
2022-10-11T06:15:52.990Z,75.57
2022-10-11T06:18:20.961Z,72.67
2022-10-11T06:20:49.302Z,74.31
2022-10-11T06:23:17.224Z,72.91
2022-10-11T06:25:45.520Z,72.50
2022-10-11T06:28:13.956Z,72.63
2022-10-11T06:30:43.304Z,70.95
2022-10-11T06:33:17.094Z,70.80
2022-10-11T06:35:45.028Z,70.79
2022-10-11T06:38:13.231Z,70.65
2022-10-11T06:40:41.345Z,70.70
2022-10-11T06:43:09.291Z,71.22
2022-10-11T06:45:37.292Z,71.00
2022-10-11T06:48:07.454Z,71.29
2022-10-11T06:50:58.546Z,70.07
2022-10-11T06:53:23.367Z,69.22
2022-10-11T06:55:51.436Z,69.22
2022-10-11T06:58:19.395Z,69.23
2022-10-11T07:00:47.437Z,69.22
2022-10-11T07:03:16.845Z,68.36
2022-10-11T07:05:45.011Z,68.67
2022-10-11T07:08:12.956Z,67.96
2022-10-11T07:10:41.065Z,68.60
2022-10-11T07:13:11.442Z,67.01
2022-10-11T07:15:42.028Z,67.01
2022-10-11T07:18:10.047Z,66.40
2022-10-11T07:20:39.475Z,66.73
2022-10-11T07:23:07.389Z,66.88
2022-10-11T07:25:35.378Z,65.56
2022-10-11T07:28:03.367Z,65.99
2022-10-11T07:30:31.361Z,66.97
2022-10-11T07:32:59.341Z,67.02
2022-10-11T07:35:27.300Z,66.95
2022-10-11T07:37:56.679Z,65.58
2022-10-11T07:40:24.860Z,65.51
2022-10-11T07:42:52.767Z,64.95
2022-10-11T07:45:20.896Z,64.04
2022-10-11T07:47:48.896Z,64.61
2022-10-11T07:50:17.107Z,64.89
2022-10-11T07:52:45.140Z,65.40
2022-10-11T07:55:14.484Z,66.21
2022-10-11T07:57:42.524Z,66.00
2022-10-11T08:00:11.625Z,65.89
2022-10-11T08:02:42.148Z,66.38
2022-10-11T08:05:10.249Z,66.91
2022-10-11T08:07:38.479Z,66.88
2022-10-11T08:10:08.003Z,67.30
2022-10-11T08:12:37.289Z,66.76
2022-10-11T08:15:05.870Z,66.15
2022-10-11T08:17:33.934Z,66.42
2022-10-11T08:20:01.887Z,65.89
2022-10-11T08:22:30.535Z,65.94
2022-10-11T08:24:58.456Z,66.11
2022-10-11T08:27:26.492Z,66.93
2022-10-11T08:29:55.862Z,66.53
2022-10-11T08:32:23.800Z,66.87
2022-10-11T08:34:52.931Z,67.84
2022-10-11T08:37:20.896Z,66.71
2022-10-11T08:39:48.830Z,66.81
2022-10-11T08:42:27.416Z,67.46
2022-10-11T08:45:10.450Z,67.02
2022-10-11T08:47:41.917Z,67.21
2022-10-11T08:50:18.980Z,66.06
2022-10-11T08:52:51.857Z,65.98
2022-10-11T08:55:27.282Z,66.45
2022-10-11T08:57:57.589Z,66.00
2022-10-11T09:00:31.881Z,64.56
2022-10-11T09:03:09.331Z,64.74
2022-10-11T09:05:48.491Z,65.24
2022-10-11T09:08:22.249Z,65.68
2022-10-11T09:11:00.649Z,64.24
2022-10-11T09:13:52.555Z,64.74
2022-10-11T09:16:32.626Z,65.44
2022-10-11T09:19:21.624Z,63.91
2022-10-11T09:22:01.533Z,64.66
2022-10-11T09:24:45.793Z,64.00
2022-10-11T09:27:57.344Z,63.15
2022-10-11T09:30:21.793Z,64.54
2022-10-11T09:33:00.617Z,64.03
2022-10-11T09:35:33.744Z,65.29
2022-10-11T09:38:07.765Z,63.45
2022-10-11T09:40:52.525Z,63.24
2022-10-11T09:43:20.498Z,62.86
2022-10-11T09:45:49.626Z,64.38
2022-10-11T09:48:24.074Z,64.35
2022-10-11T09:50:53.479Z,64.13
2022-10-11T09:53:22.024Z,63.47
2022-10-11T09:55:54.259Z,63.38
2022-10-11T09:58:31.144Z,63.74
2022-10-11T10:01:07.299Z,63.31
2022-10-11T10:03:39.480Z,63.33
2022-10-11T10:06:10.463Z,63.67
2022-10-11T10:08:39.291Z,63.85
2022-10-11T10:11:08.304Z,63.76
2022-10-11T10:13:44.920Z,64.12
2022-10-11T10:16:26.166Z,64.37
2022-10-11T10:18:57.929Z,64.20
2022-10-11T10:21:29.693Z,65.27
2022-10-11T10:24:00.159Z,65.75
2022-10-11T10:26:28.551Z,64.77
2022-10-11T10:29:04.962Z,66.16
2022-10-11T10:31:55.239Z,65.44
2022-10-11T10:34:32.066Z,66.10
2022-10-11T10:37:04.866Z,66.99
2022-10-11T10:39:40.564Z,67.60
2022-10-11T10:42:15.055Z,67.92
2022-10-11T10:44:43.881Z,67.95
2022-10-11T10:47:20.308Z,68.20
2022-10-11T10:49:58.223Z,68.63
2022-10-11T10:52:47.262Z,68.55
2022-10-11T10:55:23.750Z,68.23
2022-10-11T10:58:05.158Z,69.30
2022-10-11T11:00:42.689Z,68.65
2022-10-11T11:03:17.111Z,69.31
2022-10-11T11:05:55.269Z,69.33
2022-10-11T11:08:39.907Z,68.85
2022-10-11T11:11:32.484Z,69.42
2022-10-11T11:14:11.490Z,68.49
2022-10-11T11:16:49.743Z,69.63
2022-10-11T11:19:31.829Z,69.89
2022-10-11T11:22:07.697Z,69.78
2022-10-11T11:24:43.569Z,70.65
2022-10-11T11:27:20.821Z,70.97
2022-10-11T11:30:00.205Z,70.41
2022-10-11T11:32:44.770Z,69.63
2022-10-11T11:35:18.226Z,70.04
2022-10-11T11:37:51.970Z,70.25
2022-10-11T11:40:35.270Z,69.76
2022-10-11T11:43:08.413Z,69.58
2022-10-11T11:45:47.547Z,68.36
2022-10-11T11:48:19.683Z,68.96
2022-10-11T11:50:54.564Z,68.53
2022-10-11T11:53:33.185Z,68.54
2022-10-11T11:56:05.577Z,68.24
2022-10-11T11:58:41.862Z,67.12
2022-10-11T12:01:26.455Z,66.95
2022-10-11T12:04:00.641Z,67.63
2022-10-11T12:06:31.708Z,67.15
2022-10-11T12:09:08.932Z,67.39
2022-10-11T12:11:43.570Z,67.93
2022-10-11T12:14:18.557Z,67.92
2022-10-11T12:17:21.772Z,67.87
2022-10-11T12:20:14.638Z,68.15
2022-10-11T12:22:58.346Z,68.56
2022-10-11T12:25:43.709Z,68.48
2022-10-11T12:28:49.134Z,68.32
2022-10-11T12:31:21.679Z,68.65
2022-10-11T12:33:53.073Z,69.24
2022-10-11T12:36:36.765Z,68.29
2022-10-11T12:39:38.073Z,69.02
2022-10-11T12:42:25.490Z,69.56
2022-10-11T12:45:32.113Z,69.33
2022-10-11T12:48:40.618Z,68.49
2022-10-11T12:51:28.972Z,68.96
2022-10-11T12:54:26.601Z,69.43
2022-10-11T12:57:17.257Z,70.41
2022-10-11T12:59:47.277Z,70.26
2022-10-11T13:02:28.975Z,69.96
2022-10-11T13:05:08.312Z,70.12
2022-10-11T13:07:37.115Z,70.42
2022-10-11T13:10:06.215Z,70.41
2022-10-11T13:12:41.536Z,70.63
2022-10-11T13:15:16.549Z,70.97
2022-10-11T13:17:44.618Z,71.35
2022-10-11T13:20:19.894Z,72.00
2022-10-11T13:22:49.412Z,71.77
2022-10-11T13:25:20.856Z,71.67
2022-10-11T13:27:50.611Z,71.08
2022-10-11T13:30:22.241Z,72.03
2022-10-11T13:32:50.467Z,71.72
2022-10-11T13:35:25.119Z,71.74
2022-10-11T13:37:53.221Z,71.73
2022-10-11T13:40:23.216Z,72.30
2022-10-11T13:42:53.463Z,72.36
2022-10-11T13:45:25.706Z,72.73
2022-10-11T13:47:55.282Z,72.34
2022-10-11T13:50:31.744Z,72.23
2022-10-11T13:53:01.652Z,72.89
2022-10-11T13:55:33.605Z,73.27
2022-10-11T13:58:03.452Z,72.67
2022-10-11T14:00:38.441Z,73.65
2022-10-11T14:03:18.104Z,73.27
2022-10-11T14:05:55.004Z,73.52
2022-10-11T14:08:29.699Z,73.21
2022-10-11T14:11:01.283Z,73.13
2022-10-11T14:13:36.468Z,73.51
2022-10-11T14:16:11.628Z,73.62
2022-10-11T14:18:45.658Z,73.34
2022-10-11T14:21:34.993Z,73.23
2022-10-11T14:24:08.199Z,73.32
2022-10-11T14:26:38.487Z,73.22
2022-10-11T14:29:09.701Z,73.77
2022-10-11T14:31:42.017Z,74.12
2022-10-11T14:34:17.712Z,74.21
2022-10-11T14:36:45.721Z,74.23
2022-10-11T14:39:16.619Z,74.08
2022-10-11T14:41:44.778Z,73.89
2022-10-11T14:44:12.753Z,74.00
2022-10-11T14:46:42.748Z,74.42
2022-10-11T14:49:15.716Z,74.63
2022-10-11T14:51:44.719Z,75.29
2022-10-11T14:54:14.010Z,74.91
2022-10-11T14:56:42.051Z,75.51
2022-10-11T14:59:15.061Z,75.44
2022-10-11T15:01:46.283Z,75.90
2022-10-11T15:04:14.297Z,75.76
2022-10-11T15:06:42.864Z,75.56
2022-10-11T15:09:11.346Z,76.21
2022-10-11T15:11:39.490Z,75.73
2022-10-11T15:14:07.840Z,76.28
2022-10-11T15:16:36.606Z,75.94
2022-10-11T15:19:06.061Z,76.37
2022-10-11T15:21:35.383Z,76.22
2022-10-11T15:24:03.414Z,76.55
2022-10-11T15:26:36.207Z,76.25
2022-10-11T15:29:05.191Z,76.82
2022-10-11T15:31:38.091Z,77.06
2022-10-11T15:34:17.754Z,76.57
2022-10-11T15:36:51.078Z,76.75
2022-10-11T15:39:31.535Z,76.75
2022-10-11T15:41:59.763Z,76.84
2022-10-11T15:44:34.316Z,77.46
2022-10-11T15:47:02.251Z,77.50
2022-10-11T15:49:39.995Z,77.42
2022-10-11T15:52:09.815Z,77.87
2022-10-11T15:54:41.986Z,77.53
2022-10-11T15:57:15.305Z,77.28
2022-10-11T15:59:47.509Z,76.95
2022-10-11T16:02:16.259Z,77.61
2022-10-11T16:04:45.568Z,77.55
2022-10-11T16:07:13.567Z,78.11
2022-10-11T16:09:41.548Z,77.78
2022-10-11T16:12:09.499Z,77.68
2022-10-11T16:14:37.607Z,78.03
2022-10-11T16:17:08.024Z,77.85
2022-10-11T16:19:36.438Z,77.58
2022-10-11T16:22:05.891Z,78.07
2022-10-11T16:24:33.829Z,78.28
2022-10-11T16:27:02.184Z,77.72
2022-10-11T16:29:30.249Z,78.00
2022-10-11T16:31:58.227Z,78.61
2022-10-11T16:34:26.235Z,78.35
2022-10-11T16:36:54.262Z,78.48
2022-10-11T16:39:24.025Z,77.73
2022-10-11T16:41:52.020Z,78.14
2022-10-11T16:44:24.057Z,78.47
2022-10-11T16:46:52.608Z,78.05
2022-10-11T16:49:23.022Z,78.13
2022-10-11T16:51:51.491Z,78.50
2022-10-11T16:54:20.913Z,78.66
2022-10-11T16:56:50.848Z,78.27
2022-10-11T16:59:19.005Z,78.63
2022-10-11T17:01:47.347Z,78.01
2022-10-11T17:04:16.113Z,78.38
2022-10-11T17:06:44.939Z,79.17
2022-10-11T17:09:13.446Z,78.93
2022-10-11T17:11:41.851Z,79.10
2022-10-11T17:14:12.740Z,79.28
2022-10-11T17:16:41.146Z,79.41
2022-10-11T17:19:12.142Z,79.52
2022-10-11T17:21:41.029Z,79.42
2022-10-11T17:24:08.963Z,80.04
2022-10-11T17:26:36.955Z,79.28
2022-10-11T17:29:05.341Z,78.82
2022-10-11T17:31:36.526Z,78.90
2022-10-11T17:34:04.410Z,79.45
2022-10-11T17:36:34.868Z,79.70
2022-10-11T17:39:05.122Z,79.89
2022-10-11T17:41:33.233Z,79.42
2022-10-11T17:44:02.850Z,80.04
2022-10-11T17:46:32.808Z,80.50
2022-10-11T17:49:05.181Z,80.85
2022-10-11T17:51:34.218Z,80.52
2022-10-11T17:54:02.218Z,80.56
2022-10-11T17:56:35.192Z,80.63
2022-10-11T17:59:05.472Z,80.61
2022-10-11T18:01:33.615Z,80.25
2022-10-11T18:04:05.999Z,80.64
2022-10-11T18:06:39.178Z,80.45
2022-10-11T18:09:07.235Z,80.69
2022-10-11T18:11:35.852Z,80.23
2022-10-11T18:14:05.176Z,80.14
2022-10-11T18:16:34.089Z,80.63
2022-10-11T18:19:04.902Z,80.97
2022-10-11T18:21:34.845Z,80.82
2022-10-11T18:24:05.055Z,80.65
2022-10-11T18:26:33.267Z,81.54
2022-10-11T18:29:01.739Z,81.22
2022-10-11T18:31:31.546Z,80.94
2022-10-11T18:33:59.473Z,81.06
2022-10-11T18:36:31.561Z,81.33
2022-10-11T18:39:01.961Z,81.85
2022-10-11T18:41:32.390Z,81.75
2022-10-11T18:44:03.543Z,82.29
2022-10-11T18:46:32.944Z,82.08
2022-10-11T18:49:02.089Z,82.25
2022-10-11T18:51:33.224Z,81.69
2022-10-11T18:54:01.597Z,81.54
2022-10-11T18:56:31.269Z,81.81
2022-10-11T18:59:00.326Z,82.47
2022-10-11T19:01:30.338Z,81.92
2022-10-11T19:04:00.348Z,81.50
2022-10-11T19:06:30.588Z,81.65
2022-10-11T19:09:03.868Z,82.53
2022-10-11T19:11:32.284Z,82.71
2022-10-11T19:14:02.608Z,82.65
2022-10-11T19:16:31.655Z,82.35
2022-10-11T19:18:59.669Z,82.36
2022-10-11T19:21:28.139Z,82.23
2022-10-11T19:23:56.931Z,82.39
2022-10-11T19:26:29.080Z,82.81
2022-10-11T19:28:58.879Z,82.97
2022-10-11T19:31:27.477Z,82.62
2022-10-11T19:33:57.245Z,83.17
2022-10-11T19:36:25.813Z,82.89
2022-10-11T19:38:56.664Z,82.80
2022-10-11T19:41:27.436Z,82.61
2022-10-11T19:43:58.071Z,82.70
2022-10-11T19:46:50.004Z,82.45
2022-10-11T19:49:17.631Z,82.73
2022-10-11T19:51:45.841Z,82.76
2022-10-11T19:54:15.157Z,82.47
2022-10-11T19:56:45.061Z,82.27
2022-10-11T19:59:16.012Z,82.55
2022-10-11T20:01:49.375Z,82.89
2022-10-11T20:04:46.915Z,82.01
2022-10-11T20:07:07.148Z,82.22
2022-10-11T20:09:35.162Z,82.38
2022-10-11T20:12:04.506Z,82.83
2022-10-11T20:14:32.542Z,83.11
2022-10-11T20:17:00.611Z,82.62
2022-10-11T20:19:31.428Z,83.07
2022-10-11T20:22:00.138Z,82.67
2022-10-11T20:24:32.631Z,82.83
2022-10-11T20:27:01.910Z,83.08
2022-10-11T20:29:31.287Z,82.59
2022-10-11T20:31:59.941Z,83.22
2022-10-11T20:34:28.706Z,82.51
2022-10-11T20:36:56.668Z,82.62
2022-10-11T20:39:24.827Z,83.63
2022-10-11T20:41:52.739Z,83.39
2022-10-11T20:44:20.705Z,83.53
2022-10-11T20:46:50.052Z,83.31
2022-10-11T20:49:19.884Z,82.77
2022-10-11T20:51:47.973Z,83.12
2022-10-11T20:54:16.034Z,82.38
2022-10-11T20:56:43.981Z,83.12
2022-10-11T20:59:11.933Z,83.08
2022-10-11T21:01:41.648Z,83.00
2022-10-11T21:04:19.729Z,82.86
2022-10-11T21:06:48.478Z,83.47
2022-10-11T21:09:17.166Z,83.59
2022-10-11T21:11:45.352Z,83.54
2022-10-11T21:14:13.329Z,83.12
2022-10-11T21:16:41.374Z,83.37
2022-10-11T21:19:15.064Z,83.68
2022-10-11T21:21:43.443Z,83.45
2022-10-11T21:24:11.508Z,83.50
2022-10-11T21:26:39.567Z,84.01
2022-10-11T21:29:08.512Z,83.73
2022-10-11T21:31:37.687Z,83.83
2022-10-11T21:34:07.419Z,83.46
2022-10-11T21:36:36.813Z,84.06
2022-10-11T21:39:04.909Z,84.34
2022-10-11T21:41:34.018Z,84.38
2022-10-11T21:44:02.212Z,84.45
2022-10-11T21:49:21.034Z,85.08
2022-10-11T21:51:50.704Z,85.42
2022-10-11T21:54:19.070Z,85.28
2022-10-11T21:56:47.060Z,85.66
2022-10-11T21:59:15.018Z,85.87
2022-10-11T22:01:43.991Z,85.75
2022-10-11T22:04:12.042Z,85.74
2022-10-11T22:06:40.809Z,85.93
2022-10-11T22:09:10.348Z,86.29
2022-10-11T22:11:38.600Z,86.02
2022-10-11T22:14:06.591Z,86.35
2022-10-11T22:16:34.783Z,86.19
2022-10-11T22:19:02.758Z,86.79
2022-10-11T22:21:31.757Z,86.34
2022-10-11T22:23:59.457Z,86.81
2022-10-11T22:26:31.172Z,86.66
2022-10-11T22:28:59.929Z,86.55
2022-10-11T22:31:27.952Z,86.55
2022-10-11T22:33:56.861Z,86.77
2022-10-11T22:36:25.260Z,87.19
2022-10-11T22:38:54.369Z,87.01
2022-10-11T22:41:22.517Z,87.28
2022-10-11T22:43:51.925Z,86.90
2022-10-11T22:46:19.903Z,87.07
2022-10-11T22:48:47.824Z,86.93
2022-10-11T22:51:15.807Z,87.23
2022-10-11T22:53:43.858Z,87.09
2022-10-11T22:56:11.924Z,87.38
2022-10-11T22:58:40.159Z,87.30
2022-10-11T23:01:10.621Z,87.27
2022-10-11T23:03:38.941Z,87.35
2022-10-11T23:06:07.311Z,87.61
2022-10-11T23:08:35.476Z,87.31
2022-10-11T23:11:04.804Z,87.67
2022-10-11T23:13:32.897Z,87.90
2022-10-11T23:16:00.933Z,88.31
2022-10-11T23:18:30.255Z,88.21
2022-10-11T23:21:01.537Z,88.70
2022-10-11T23:23:29.699Z,89.05
2022-10-11T23:26:06.404Z,89.08
2022-10-11T23:28:35.500Z,89.56
2022-10-11T23:31:08.326Z,89.94
2022-10-11T23:33:37.931Z,89.81
2022-10-11T23:36:06.525Z,90.04
2022-10-11T23:38:34.504Z,90.08
2022-10-11T23:41:02.406Z,90.31
2022-10-11T23:43:30.379Z,90.02
2022-10-11T23:45:58.352Z,90.40
2022-10-11T23:48:26.267Z,90.65
2022-10-11T23:50:55.597Z,90.64
2022-10-11T23:53:23.561Z,90.68
2022-10-11T23:55:51.936Z,90.57
2022-10-11T23:58:19.884Z,90.49
